createdAt,value
2024-05-09T00:00:15.602Z,21.50
2024-05-09T00:02:48.889Z,19.23
2024-05-09T00:05:19.370Z,20.10
2024-05-09T00:07:49.913Z,19.97
2024-05-09T00:10:28.813Z,22.10
2024-05-09T00:13:08.790Z,20.60
2024-05-09T00:15:39.439Z,19.67
2024-05-09T00:18:10.078Z,20.80
2024-05-09T00:20:41.380Z,20.33
2024-05-09T00:23:13.768Z,21.67
2024-05-09T00:25:45.929Z,20.73
2024-05-09T00:28:19.118Z,20.97
2024-05-09T00:30:49.460Z,19.40
2024-05-09T00:33:20.093Z,21.53
2024-05-09T00:35:50.661Z,19.97
2024-05-09T00:38:21.239Z,21.93
2024-05-09T00:40:54.644Z,20.77
2024-05-09T00:43:27.655Z,20.10
2024-05-09T00:45:58.565Z,21.13
2024-05-09T00:48:30.862Z,20.57
2024-05-09T00:51:01.651Z,21.43
2024-05-09T00:53:33.609Z,20.47
2024-05-09T00:56:04.494Z,21.33
2024-05-09T00:58:37.755Z,21.43
2024-05-09T01:01:10.551Z,20.00
2024-05-09T01:03:41.222Z,20.03
2024-05-09T01:06:11.908Z,21.57
2024-05-09T01:08:42.414Z,20.63
2024-05-09T01:11:12.963Z,21.47
2024-05-09T01:13:46.684Z,20.57
2024-05-09T01:16:17.248Z,20.47
2024-05-09T01:18:47.867Z,21.80
2024-05-09T01:21:18.571Z,21.43
2024-05-09T01:23:51.704Z,21.10
2024-05-09T01:26:22.076Z,21.70
2024-05-09T01:28:52.493Z,20.43
2024-05-09T01:31:22.838Z,20.40
2024-05-09T01:33:53.290Z,21.53
2024-05-09T01:36:23.741Z,21.37
2024-05-09T01:38:56.775Z,18.63
2024-05-09T01:41:27.275Z,21.00
2024-05-09T01:43:57.827Z,19.80
2024-05-09T01:46:28.272Z,18.73
2024-05-09T01:48:59.157Z,18.23
2024-05-09T01:51:29.790Z,19.63
2024-05-09T01:54:02.880Z,20.03
2024-05-09T01:56:33.228Z,19.93
2024-05-09T01:59:04.947Z,20.93
2024-05-09T02:01:55.582Z,19.33
2024-05-09T02:04:25.883Z,18.80
2024-05-09T02:06:56.315Z,20.10
2024-05-09T02:09:29.306Z,18.73
2024-05-09T02:11:59.731Z,19.27
2024-05-09T02:14:30.336Z,19.30
2024-05-09T02:17:01.678Z,20.57
2024-05-09T02:19:32.205Z,21.03
2024-05-09T02:22:02.632Z,19.13
2024-05-09T02:24:35.657Z,15.40
2024-05-09T02:27:06.209Z,17.83
2024-05-09T02:29:37.361Z,19.93
2024-05-09T02:32:08.522Z,20.20
2024-05-09T02:34:39.124Z,20.87
2024-05-09T02:37:09.694Z,20.07
2024-05-09T02:39:40.056Z,20.50
2024-05-09T02:42:10.622Z,20.03
2024-05-09T02:44:38.621Z,20.67
2024-05-09T02:47:09.173Z,20.47
2024-05-09T02:49:37.394Z,21.73
2024-05-09T02:52:08.430Z,19.53
2024-05-09T02:54:36.187Z,21.13
2024-05-09T02:57:10.324Z,21.77
2024-05-09T02:59:38.138Z,22.23
2024-05-09T03:02:08.603Z,20.40
2024-05-09T03:04:36.449Z,17.97
2024-05-09T03:07:07.107Z,18.07
2024-05-09T03:09:34.864Z,20.97
2024-05-09T03:12:05.479Z,18.73
2024-05-09T03:14:35.916Z,18.47
2024-05-09T03:17:06.541Z,19.47
2024-05-09T03:19:35.575Z,19.90
2024-05-09T03:22:05.977Z,17.60
2024-05-09T03:24:33.703Z,17.37
2024-05-09T03:27:04.055Z,18.37
2024-05-09T03:29:32.199Z,19.77
2024-05-09T03:32:06.100Z,20.10
2024-05-09T03:34:33.903Z,18.40
2024-05-09T03:37:04.247Z,18.53
2024-05-09T03:39:34.855Z,19.70
2024-05-09T03:42:05.413Z,19.43
2024-05-09T03:44:35.834Z,19.53
2024-05-09T03:47:08.913Z,18.23
2024-05-09T03:49:36.810Z,21.70
2024-05-09T03:52:07.995Z,19.90
2024-05-09T03:54:36.008Z,21.10
2024-05-09T03:57:06.842Z,21.27
2024-05-09T03:59:34.622Z,21.43
2024-05-09T04:02:10.476Z,20.30
2024-05-09T04:04:41.380Z,20.80
2024-05-09T04:07:11.743Z,19.23
2024-05-09T04:09:39.622Z,17.73
2024-05-09T04:12:10.879Z,20.00
2024-05-09T04:14:38.680Z,20.23
2024-05-09T04:17:11.877Z,17.53
2024-05-09T04:19:39.833Z,19.07
2024-05-09T04:22:10.662Z,19.73
2024-05-09T04:24:38.402Z,20.13
2024-05-09T04:27:08.850Z,20.50
2024-05-09T04:29:37.697Z,20.13
2024-05-09T04:32:11.210Z,19.93
2024-05-09T04:34:39.080Z,18.80
2024-05-09T04:37:09.604Z,19.50
2024-05-09T04:39:37.325Z,18.93
2024-05-09T04:42:08.262Z,20.13
2024-05-09T04:44:36.086Z,21.77
2024-05-09T04:47:06.730Z,19.60
2024-05-09T04:49:37.230Z,19.40
2024-05-09T04:52:08.196Z,21.30
2024-05-09T04:54:36.767Z,19.37
2024-05-09T04:57:07.665Z,19.20
2024-05-09T04:59:38.234Z,19.50
2024-05-09T05:02:11.667Z,19.10
2024-05-09T05:04:42.216Z,20.20
2024-05-09T05:07:12.790Z,19.13
2024-05-09T05:09:40.506Z,18.87
2024-05-09T05:12:31.313Z,18.60
2024-05-09T05:14:59.142Z,21.47
2024-05-09T05:17:29.836Z,21.90
2024-05-09T05:20:00.805Z,20.77
2024-05-09T05:22:31.345Z,21.93
2024-05-09T05:24:59.024Z,21.80
2024-05-09T05:27:31.023Z,22.27
2024-05-09T05:29:58.919Z,20.37
2024-05-09T05:32:29.928Z,23.27
2024-05-09T05:35:00.755Z,22.43
2024-05-09T05:37:31.214Z,21.93
2024-05-09T05:39:58.961Z,23.40
2024-05-09T05:42:29.441Z,21.20
2024-05-09T05:44:57.179Z,22.27
2024-05-09T05:47:27.701Z,23.00
2024-05-09T05:49:55.736Z,22.70
2024-05-09T05:52:28.901Z,20.53
2024-05-09T05:54:56.644Z,23.17
2024-05-09T05:57:27.118Z,23.67
2024-05-09T05:59:54.888Z,23.00
2024-05-09T06:02:25.344Z,22.47
2024-05-09T06:04:53.272Z,22.90
2024-05-09T06:07:23.852Z,24.33
2024-05-09T06:09:54.744Z,25.13
2024-05-09T06:12:25.400Z,23.87
2024-05-09T06:14:53.256Z,23.07
2024-05-09T06:17:23.847Z,23.93
2024-05-09T06:19:51.966Z,24.17
2024-05-09T06:22:32.384Z,23.47
2024-05-09T06:25:02.825Z,23.97
2024-05-09T06:27:33.274Z,21.07
2024-05-09T06:30:01.136Z,23.20
2024-05-09T06:32:32.038Z,20.97
2024-05-09T06:35:00.115Z,22.87
2024-05-09T06:37:30.784Z,22.67
2024-05-09T06:39:58.528Z,24.07
2024-05-09T06:42:31.795Z,26.10
2024-05-09T06:44:59.768Z,25.77
2024-05-09T06:47:30.395Z,26.77
2024-05-09T06:49:58.453Z,27.10
2024-05-09T06:52:28.905Z,24.07
2024-05-09T06:54:56.676Z,24.50
2024-05-09T06:57:27.166Z,24.97
2024-05-09T07:00:00.830Z,23.13
2024-05-09T07:02:32.192Z,25.40
2024-05-09T07:05:00.050Z,24.40
2024-05-09T07:07:30.822Z,23.57
2024-05-09T07:10:01.324Z,23.00
2024-05-09T07:12:29.214Z,25.07
2024-05-09T07:15:02.359Z,25.57
2024-05-09T07:17:30.292Z,24.20
2024-05-09T07:20:00.949Z,25.60
2024-05-09T07:22:29.735Z,22.67
2024-05-09T07:25:00.054Z,22.77
2024-05-09T07:27:28.277Z,22.53
2024-05-09T07:30:01.328Z,22.80
2024-05-09T07:32:29.163Z,23.23
2024-05-09T07:34:59.780Z,21.73
2024-05-09T07:37:27.552Z,23.03
2024-05-09T07:39:58.190Z,24.57
2024-05-09T07:42:25.920Z,20.13
2024-05-09T07:44:58.731Z,21.97
2024-05-09T07:48:57.650Z,21.10
2024-05-09T07:55:28.535Z,25.60
2024-05-09T07:57:59.077Z,22.33
2024-05-09T08:00:31.131Z,21.50
2024-05-09T08:03:05.279Z,21.97
2024-05-09T08:05:33.249Z,22.10
2024-05-09T08:08:03.796Z,24.57
2024-05-09T08:10:31.762Z,23.27
2024-05-09T08:13:02.174Z,21.63
2024-05-09T08:15:30.031Z,21.10
2024-05-09T08:18:00.909Z,21.27
2024-05-09T08:20:35.128Z,21.87
2024-05-09T08:23:06.088Z,21.93
2024-05-09T08:25:34.032Z,21.90
2024-05-09T08:28:06.484Z,22.67
2024-05-09T08:30:37.285Z,22.63
2024-05-09T08:33:09.249Z,21.87
2024-05-09T08:35:39.915Z,22.50
2024-05-09T08:38:11.985Z,24.40
2024-05-09T08:40:39.905Z,22.97
2024-05-09T08:43:12.830Z,23.13
2024-05-09T08:45:44.258Z,22.37
2024-05-09T08:48:16.852Z,23.27
2024-05-09T08:50:49.695Z,23.33
2024-05-09T08:53:20.257Z,24.60
2024-05-09T08:55:51.896Z,24.37
2024-05-09T08:58:22.384Z,24.53
2024-05-09T09:00:51.592Z,23.13
2024-05-09T09:03:25.172Z,24.27
2024-05-09T09:06:03.003Z,25.47
2024-05-09T09:08:33.780Z,23.60
2024-05-09T09:11:01.782Z,24.93
2024-05-09T09:13:32.496Z,24.43
2024-05-09T09:16:01.218Z,23.07
2024-05-09T09:18:33.206Z,23.53
2024-05-09T09:21:04.006Z,23.07
2024-05-09T09:23:34.562Z,26.53
2024-05-09T09:26:02.610Z,24.40
2024-05-09T09:28:32.959Z,25.50
2024-05-09T09:31:04.268Z,25.27
2024-05-09T09:33:36.330Z,24.13
2024-05-09T09:36:09.017Z,23.47
2024-05-09T09:38:40.867Z,24.87
2024-05-09T09:41:10.944Z,22.70
2024-05-09T09:43:43.127Z,25.57
2024-05-09T09:46:13.284Z,25.80
2024-05-09T09:48:45.588Z,24.33
2024-05-09T09:51:16.555Z,24.03
2024-05-09T09:53:47.720Z,22.63
2024-05-09T09:56:18.088Z,23.73
2024-05-09T09:58:49.429Z,23.97
2024-05-09T10:01:17.438Z,24.80
2024-05-09T10:03:48.269Z,22.97
2024-05-09T10:06:19.704Z,24.40
2024-05-09T10:08:51.630Z,23.50
2024-05-09T10:11:20.672Z,21.80
2024-05-09T10:13:51.091Z,23.63
2024-05-09T10:16:21.594Z,25.47
2024-05-09T10:18:52.953Z,24.83
2024-05-09T10:21:23.684Z,24.73
2024-05-09T10:24:01.630Z,24.77
2024-05-09T10:26:33.359Z,24.10
2024-05-09T10:29:04.757Z,22.80
2024-05-09T10:31:32.707Z,23.77
2024-05-09T10:34:03.927Z,25.60
2024-05-09T10:36:42.785Z,25.20
2024-05-09T10:39:13.849Z,23.20
2024-05-09T10:41:41.593Z,24.30
2024-05-09T10:44:14.543Z,24.90
2024-05-09T10:46:42.597Z,22.73
2024-05-09T10:49:13.594Z,24.90
2024-05-09T10:51:45.400Z,25.70
2024-05-09T10:54:15.847Z,24.80
2024-05-09T10:56:43.731Z,26.13
2024-05-09T10:59:15.796Z,25.27
2024-05-09T11:01:43.781Z,25.37
2024-05-09T11:04:14.525Z,24.37
2024-05-09T11:06:46.888Z,25.07
2024-05-09T11:09:17.859Z,24.77
2024-05-09T11:11:45.764Z,25.83
2024-05-09T11:14:17.517Z,24.23
2024-05-09T11:16:47.427Z,26.70
2024-05-09T11:19:19.833Z,27.10
2024-05-09T11:21:54.021Z,26.57
2024-05-09T11:24:25.169Z,25.53
2024-05-09T11:26:53.007Z,25.57
2024-05-09T11:29:23.539Z,26.90
2024-05-09T11:31:51.443Z,27.10
2024-05-09T11:34:21.944Z,26.67
2024-05-09T11:36:49.899Z,24.83
2024-05-09T11:39:22.952Z,27.00
2024-05-09T11:41:50.851Z,27.70
2024-05-09T11:44:21.318Z,28.53
2024-05-09T11:46:49.257Z,27.87
2024-05-09T11:49:19.901Z,26.53
2024-05-09T11:51:47.845Z,28.27
2024-05-09T11:54:19.161Z,27.00
2024-05-09T11:56:51.764Z,26.00
2024-05-09T11:59:22.284Z,27.23
2024-05-09T12:01:50.348Z,30.03
2024-05-09T12:04:21.125Z,28.13
2024-05-09T12:06:49.000Z,27.10
2024-05-09T12:09:19.515Z,28.33
2024-05-09T12:11:49.968Z,26.50
2024-05-09T12:14:20.585Z,26.83
2024-05-09T12:16:48.616Z,27.00
2024-05-09T12:19:19.638Z,28.03
2024-05-09T12:21:47.655Z,26.53
2024-05-09T12:24:18.813Z,28.00
2024-05-09T12:26:49.343Z,27.97
2024-05-09T12:29:20.238Z,26.83
2024-05-09T12:31:48.045Z,26.57
2024-05-09T12:34:18.610Z,27.23
2024-05-09T12:36:46.657Z,25.90
2024-05-09T12:39:17.148Z,26.90
2024-05-09T12:41:45.118Z,25.87
2024-05-09T12:44:18.142Z,25.00
2024-05-09T12:46:46.091Z,25.97
2024-05-09T12:49:18.813Z,26.03
2024-05-09T12:51:47.382Z,26.57
2024-05-09T12:54:17.909Z,27.13
2024-05-09T12:56:45.679Z,27.50
2024-05-09T12:59:18.831Z,24.20
2024-05-09T13:01:46.783Z,28.93
2024-05-09T13:04:17.500Z,26.60
2024-05-09T13:06:45.454Z,27.00
2024-05-09T13:09:15.974Z,25.97
2024-05-09T13:11:44.114Z,28.57
2024-05-09T13:14:14.553Z,26.87
2024-05-09T13:16:45.013Z,27.83
2024-05-09T13:19:15.560Z,27.60
2024-05-09T13:21:43.417Z,28.10
2024-05-09T13:24:13.982Z,27.27
2024-05-09T13:26:42.017Z,27.43
2024-05-09T13:29:12.512Z,27.03
2024-05-09T13:31:40.400Z,28.83
2024-05-09T13:34:13.669Z,28.27
2024-05-09T13:36:41.722Z,27.73
2024-05-09T13:39:12.440Z,25.53
2024-05-09T13:41:40.406Z,27.27
2024-05-09T13:44:11.688Z,27.17
2024-05-09T13:46:39.495Z,26.83
2024-05-09T13:49:12.550Z,26.40
2024-05-09T13:51:43.466Z,25.20
2024-05-09T13:54:14.144Z,26.37
2024-05-09T13:56:42.196Z,28.73
2024-05-09T13:59:12.840Z,27.33
2024-05-09T14:01:40.725Z,28.77
2024-05-09T14:04:11.732Z,27.37
2024-05-09T14:06:39.639Z,28.83
2024-05-09T14:09:12.640Z,28.57
2024-05-09T14:11:40.506Z,28.67
2024-05-09T14:14:10.978Z,26.20
2024-05-09T14:16:39.689Z,29.80
2024-05-09T14:19:10.338Z,28.63
2024-05-09T14:21:38.159Z,29.37
2024-05-09T14:24:08.883Z,27.93
2024-05-09T14:26:39.333Z,29.47
2024-05-09T14:29:09.979Z,28.73
2024-05-09T14:31:40.393Z,29.37
2024-05-09T14:34:08.513Z,28.73
2024-05-09T14:36:39.339Z,29.47
2024-05-09T14:39:07.312Z,30.10
2024-05-09T14:41:39.102Z,29.50
2024-05-09T14:44:09.539Z,28.73
2024-05-09T14:46:39.952Z,30.23
2024-05-09T14:49:09.905Z,29.63
2024-05-09T14:51:42.129Z,31.60
2024-05-09T14:54:09.929Z,30.93
2024-05-09T14:56:40.498Z,29.90
2024-05-09T14:59:11.178Z,30.27
2024-05-09T15:01:41.829Z,30.83
2024-05-09T15:04:09.734Z,30.10
2024-05-09T15:06:42.760Z,30.40
2024-05-09T15:09:11.109Z,28.77
2024-05-09T15:11:41.834Z,31.10
2024-05-09T15:14:12.767Z,28.67
2024-05-09T15:16:43.231Z,29.10
2024-05-09T15:19:11.133Z,29.03
2024-05-09T15:21:41.925Z,30.10
2024-05-09T15:24:09.699Z,31.23
2024-05-09T15:26:37.832Z,29.17
2024-05-09T15:29:08.370Z,29.27
2024-05-09T15:31:38.818Z,32.17
2024-05-09T15:34:09.276Z,30.00
2024-05-09T15:36:38.686Z,32.90
2024-05-09T15:39:10.151Z,30.97
2024-05-09T15:41:37.847Z,32.53
2024-05-09T15:44:08.258Z,28.93
2024-05-09T15:46:38.823Z,29.17
2024-05-09T15:49:09.386Z,27.83
2024-05-09T15:51:37.470Z,29.17
2024-05-09T15:54:07.928Z,28.17
2024-05-09T15:56:35.776Z,30.77
2024-05-09T15:59:06.241Z,29.37
2024-05-09T16:01:34.124Z,28.67
2024-05-09T16:04:07.546Z,29.07
2024-05-09T16:06:36.083Z,29.83
2024-05-09T16:09:06.661Z,28.70
2024-05-09T16:11:34.570Z,29.67
2024-05-09T16:14:05.132Z,30.03
2024-05-09T16:16:33.169Z,29.27
2024-05-09T16:19:06.258Z,30.40
2024-05-09T16:21:34.069Z,26.70
2024-05-09T16:24:04.762Z,29.77
2024-05-09T16:26:32.937Z,30.87
2024-05-09T16:29:03.352Z,31.30
2024-05-09T16:31:31.218Z,29.93
2024-05-09T16:34:01.870Z,30.43
2024-05-09T16:36:32.862Z,30.67
2024-05-09T16:39:03.282Z,30.13
2024-05-09T16:41:31.048Z,31.63
2024-05-09T16:44:01.845Z,32.33
2024-05-09T16:46:29.929Z,31.47
2024-05-09T16:49:00.579Z,33.13
2024-05-09T16:51:28.476Z,33.00
2024-05-09T16:54:01.731Z,32.70
2024-05-09T16:56:29.592Z,31.93
2024-05-09T16:59:00.038Z,33.23
2024-05-09T17:01:28.750Z,31.17
2024-05-09T17:03:59.481Z,32.67
2024-05-09T17:06:27.541Z,32.73
2024-05-09T17:09:07.893Z,33.93
2024-05-09T17:11:44.468Z,33.43
2024-05-09T17:14:15.038Z,33.97
2024-05-09T17:16:45.651Z,32.23
2024-05-09T17:19:16.234Z,31.70
2024-05-09T17:21:43.954Z,32.70
2024-05-09T17:24:14.337Z,33.33
2024-05-09T17:26:45.833Z,31.43
2024-05-09T17:29:16.320Z,33.27
2024-05-09T17:31:44.283Z,33.57
2024-05-09T17:34:14.920Z,34.00
2024-05-09T17:36:42.788Z,33.47
2024-05-09T17:39:13.657Z,30.07
2024-05-09T17:41:46.999Z,33.60
2024-05-09T17:44:14.806Z,31.37
2024-05-09T17:46:45.461Z,31.20
2024-05-09T17:49:13.339Z,31.67
2024-05-09T17:51:54.316Z,33.97
2024-05-09T17:54:22.129Z,32.03
2024-05-09T17:56:56.459Z,33.07
2024-05-09T17:59:24.215Z,32.10
2024-05-09T18:01:54.878Z,34.13
2024-05-09T18:04:22.768Z,34.57
2024-05-09T18:06:53.246Z,34.67
2024-05-09T18:09:21.189Z,33.87
2024-05-09T18:11:51.800Z,31.57
2024-05-09T18:14:22.234Z,30.63
2024-05-09T18:16:52.717Z,33.87
2024-05-09T18:19:20.537Z,33.60
2024-05-09T18:21:51.735Z,33.00
2024-05-09T18:24:22.216Z,31.20
2024-05-09T18:26:53.779Z,32.20
2024-05-09T18:29:24.432Z,31.17
2024-05-09T18:31:55.229Z,31.40
2024-05-09T18:34:23.315Z,33.07
2024-05-09T18:36:53.856Z,31.87
2024-05-09T18:39:21.690Z,33.50
2024-05-09T18:41:52.067Z,33.33
2024-05-09T18:44:19.960Z,33.20
2024-05-09T18:46:53.263Z,31.30
2024-05-09T18:49:21.223Z,32.50
2024-05-09T18:51:51.842Z,33.93
2024-05-09T18:54:19.711Z,32.43
2024-05-09T18:56:50.130Z,34.40
2024-05-09T18:59:18.383Z,36.27
2024-05-09T19:01:48.909Z,35.70
2024-05-09T19:04:19.726Z,36.60
2024-05-09T19:06:50.841Z,32.43
2024-05-09T19:09:18.809Z,31.13
2024-05-09T19:11:49.256Z,34.73
2024-05-09T19:14:17.080Z,31.10
2024-05-09T19:16:47.548Z,33.40
2024-05-09T19:19:15.415Z,30.73
2024-05-09T19:21:48.506Z,35.40
2024-05-09T19:24:17.308Z,33.33
2024-05-09T19:26:48.167Z,32.23
2024-05-09T19:29:16.090Z,35.80
2024-05-09T19:31:46.582Z,35.27
2024-05-09T19:34:14.511Z,32.97
2024-05-09T19:36:45.073Z,34.10
2024-05-09T19:39:15.578Z,33.23
2024-05-09T19:41:46.067Z,32.63
2024-05-09T19:44:13.794Z,32.80
2024-05-09T19:46:44.194Z,32.67
2024-05-09T19:49:12.299Z,33.20
2024-05-09T19:51:42.989Z,32.77
2024-05-09T19:54:10.887Z,31.07
2024-05-09T19:56:45.253Z,31.23
2024-05-09T19:59:13.087Z,32.57
2024-05-09T20:01:43.821Z,31.93
2024-05-09T20:04:11.897Z,30.73
2024-05-09T20:06:44.268Z,31.57
2024-05-09T20:09:12.071Z,32.60
2024-05-09T20:11:45.067Z,31.53
2024-05-09T20:14:12.905Z,30.77
2024-05-09T20:16:43.294Z,30.97
2024-05-09T20:19:11.247Z,31.67
2024-05-09T20:21:45.007Z,32.80
2024-05-09T20:24:12.898Z,33.43
2024-05-09T20:26:45.951Z,34.53
2024-05-09T20:29:13.757Z,32.83
2024-05-09T20:31:44.127Z,32.13
2024-05-09T20:34:12.013Z,33.27
2024-05-09T20:36:42.543Z,31.20
2024-05-09T20:39:10.455Z,31.90
2024-05-09T20:41:46.473Z,31.33
2024-05-09T20:44:14.283Z,31.17
2024-05-09T20:46:45.289Z,33.07
2024-05-09T20:49:13.208Z,32.63
2024-05-09T20:51:43.878Z,33.43
2024-05-09T20:54:11.652Z,32.87
2024-05-09T20:56:42.466Z,34.10
2024-05-09T20:59:13.254Z,32.37
2024-05-09T21:01:49.229Z,33.23
2024-05-09T21:04:20.622Z,31.77
2024-05-09T21:06:51.470Z,33.73
2024-05-09T21:09:19.493Z,33.70
2024-05-09T21:11:52.847Z,32.73
2024-05-09T21:14:25.945Z,32.03
2024-05-09T21:16:53.992Z,29.43
2024-05-09T21:19:26.638Z,32.33
2024-05-09T21:21:54.451Z,31.97
2024-05-09T21:24:26.172Z,31.40
2024-05-09T21:26:54.687Z,33.73
2024-05-09T21:29:28.024Z,32.93
2024-05-09T21:31:56.016Z,31.70
2024-05-09T21:34:26.611Z,33.63
2024-05-09T21:36:54.659Z,31.13
2024-05-09T21:39:27.295Z,31.23
2024-05-09T21:41:55.155Z,33.00
2024-05-09T21:44:28.249Z,32.00
2024-05-09T21:46:56.317Z,31.97
2024-05-09T21:49:26.757Z,32.43
2024-05-09T21:51:54.603Z,34.67
2024-05-09T21:54:25.221Z,32.57
2024-05-09T21:56:52.981Z,36.07
2024-05-09T21:59:23.446Z,33.67
2024-05-09T22:01:54.039Z,34.60
2024-05-09T22:04:24.527Z,34.23
2024-05-09T22:06:52.311Z,35.40
2024-05-09T22:09:22.779Z,33.50
2024-05-09T22:11:52.935Z,34.90
2024-05-09T22:14:24.250Z,32.57
2024-05-09T22:16:54.707Z,33.60
2024-05-09T22:19:25.311Z,33.40
2024-05-09T22:21:53.984Z,31.87
2024-05-09T22:24:24.505Z,31.37
2024-05-09T22:26:53.676Z,32.20
2024-05-09T22:29:24.053Z,33.80
2024-05-09T22:31:54.530Z,31.93
2024-05-09T22:34:25.466Z,32.67
2024-05-09T22:36:53.841Z,33.67
2024-05-09T22:39:24.917Z,33.00
2024-05-09T22:41:52.698Z,32.47
2024-05-09T22:44:23.071Z,34.80
2024-05-09T22:46:53.546Z,34.83
2024-05-09T22:49:24.128Z,34.23
2024-05-09T22:51:51.930Z,32.90
2024-05-09T22:54:22.447Z,32.20
2024-05-09T22:56:50.271Z,34.60
2024-05-09T22:59:20.943Z,32.87
2024-05-09T23:01:48.802Z,34.87
2024-05-09T23:04:22.003Z,34.87
2024-05-09T23:06:51.587Z,32.77
2024-05-09T23:09:21.948Z,34.47
2024-05-09T23:11:49.925Z,34.23
2024-05-09T23:14:20.320Z,33.33
2024-05-09T23:16:48.103Z,33.10
2024-05-09T23:19:21.160Z,33.43
2024-05-09T23:21:48.932Z,32.10
2024-05-09T23:24:19.304Z,31.17
2024-05-09T23:26:47.015Z,32.83
2024-05-09T23:29:17.491Z,30.60
2024-05-09T23:31:45.300Z,31.77
2024-05-09T23:34:17.174Z,31.40
2024-05-09T23:36:47.734Z,30.13
2024-05-09T23:39:18.188Z,31.33
2024-05-09T23:41:45.942Z,32.73
2024-05-09T23:44:16.322Z,30.63
2024-05-09T23:46:44.112Z,31.77
2024-05-09T23:49:14.512Z,30.77
2024-05-09T23:51:42.290Z,29.20
2024-05-09T23:54:15.301Z,31.37
2024-05-09T23:56:43.132Z,31.13
2024-05-09T23:59:13.530Z,29.63
